Allerte
Precipitazioni in corso 

Grottaglie
Brindisi

Allerta Gelo (░C)  

Nessuna

Allerta Vento (km/h)  

Nessuna

Scarsa VisibilitÓ (m) 

Nessuna

Allerta Caldo (░C)  

Nessuna

Allerta Afa (░C-UR)  

Nessuna

Dati e Grafici Climatici 3-7 gg
L'OMTeA propone un elaborazione dei più importanti parametri meteorologici rilevati dalle stazioni che hanno aderito al progetto di monitoraggio. In questa sezione è possibile consultare i dati provenienti dalle centraline, interpretati attraverso output testuale e grafico.
Se vuoi aderire alla rete OMTeA vai alla pagina Info e leggi requisiti e vantaggi.

Stazione di Cefal¨ - www.meteocefalu.altervista.org

Valori rilevati il 17/11/2017 alle ore 19:45

Temperatura atmosferica: 14.8 °C
Pressione atmosferica: 1009.3 mbar
Umidità relativa: 82 %
Pioggia (cumulata giornaliera): 6.3 mm
Intensità e direzione vento: 4.1 Km/h da SSE

Altitudine: 20 metri s.l.m.
Latitudine: 38.02° N
Longitudine: 14.01° E



Entra nella rete OMTeA!. Potrai liberamente usare sul tuo sito questi grafici; info alla pagina Istruzioni.

Ultime 50 rilevazioni
Orario Temp
°C
Rugiada
°C
Prec.
mm
Press.
mbar
Umidità
%
Int. vento
km/h
Dir.
vento
19:45 - 17/11 14.8 11.8 0 1009.30 82 4.1 SSE
19:29 - 17/11 14.8 11.8 0 1009.10 82 0 --
19:14 - 17/11 14.8 11.8 0 1009.20 82 0 --
18:59 - 17/11 15.0 11.8 0 1009.10 81 0 --
18:44 - 17/11 15.2 12.0 0 1008.90 81 1.9 SSE
18:29 - 17/11 15.4 12.3 0 1008.80 82 5.4 S
18:14 - 17/11 15.5 12.4 0 1008.70 82 2.9 SO
17:59 - 17/11 14.9 12.0 0 1008.70 83 2.9 SSO
17:44 - 17/11 14.9 12.0 0 1008.50 83 1.2 SO
17:29 - 17/11 14.8 11.9 2.1 1008.50 83 1.6 SSE
10:36 - 17/11 14.9 11.5 0 1008.70 80 11.1 SSO
10:29 - 17/11 14.9 11.5 0 1008.70 80 11.1 SSO
10:14 - 17/11 14.9 11.5 0 1008.80 80 8.0 SSO
09:59 - 17/11 14.8 11.4 0 1008.70 80 4.9 SO
09:44 - 17/11 14.6 11.4 0 1008.50 81 9.3 SSO
09:29 - 17/11 14.7 11.5 0 1008.30 81 7.0 SSO
09:14 - 17/11 14.6 11.6 0 1008.30 82 5.4 SSO
08:59 - 17/11 14.3 11.3 0 1008.10 82 8.0 SO
08:44 - 17/11 13.9 11.1 0 1008.30 83 5.8 SSO
08:29 - 17/11 13.9 11.1 0 1008.30 83 10.3 S
08:14 - 17/11 13.1 10.6 0 1008.20 85 9.1 SO
07:59 - 17/11 13.1 10.6 0.6 1008.10 85 9.1 SO
07:44 - 17/11 12.9 10.6 1.0 1008.20 86 8.7 S
00:54 - 17/11 13.6 10.9 0 1007.90 84 6.5 ONO
00:44 - 17/11 13.3 10.7 1.6 1007.80 84 6.6 O
00:31 - 17/11 13.8 11.0 1.0 1008.00 83 4.5 SO
00:14 - 17/11 14.7 10.9 0 1008.00 78 5.5 ONO
23:59 - 16/11 14.4 10.6 0 1007.90 78 12.9 SO
23:38 - 16/11 14.6 10.6 0 1007.90 77 4.1 OSO
23:29 - 16/11 14.5 11.1 0 1007.90 80 4.9 SSO
23:14 - 16/11 13.9 10.5 0 1008.00 80 7.0 S
22:59 - 16/11 13.9 10.7 0 1008.00 81 11.1 SSO
22:44 - 16/11 13.8 10.8 0 1008.10 82 8.2 SO
22:29 - 16/11 13.6 10.9 0.5 1008.10 84 9.7 SSO
22:14 - 16/11 13.3 10.8 0 1008.10 85 5.4 SO
21:59 - 16/11 13.6 11.1 0 1008.10 85 6.4 SSO
21:44 - 16/11 13.6 11.1 0 1008.00 85 2.1 SO
21:29 - 16/11 12.9 10.6 0 1008.10 86 3.3 SO
21:14 - 16/11 12.6 10.3 0 1008.30 86 7.8 SSO
20:59 - 16/11 13.0 10.7 1.1 1008.20 86 5.1 SO
20:44 - 16/11 12.7 10.2 0 1008.30 85 7.8 S
20:29 - 16/11 12.8 10.2 0.5 1008.10 84 6.4 SO
20:14 - 16/11 13.4 10.7 0 1008.00 84 12.6 O
19:59 - 16/11 13.3 10.5 0 1008.10 83 9.3 SO
19:44 - 16/11 13.3 10.3 0 1008.00 82 8.2 SSO
19:29 - 16/11 13.4 10.4 0 1007.80 82 10.3 SO
19:14 - 16/11 13.2 10.4 0 1007.70 83 15.5 S
18:59 - 16/11 12.8 10.2 0 1007.70 84 13.6 SO
18:44 - 16/11 12.8 10.0 0 1007.80 83 8.0 OSO
18:29 - 16/11 12.9 9.9 0 1007.80 82 9.1 SO


   In caso di mancato funzionamento di qualche risorsa, vi preghiamo di segnalarcelo alla pagina Contatti.
© 2017 Osservatorio Meteo OMTeA
Sito di informazione su Meteo, Tempo in atto e Clima in Italia